Time;durP1;ratioP1;P1;durP2;ratioP2;P2;SDS_P1;SDS_P2;PMS_P1;PMS_P2;Temp;Humidity;BMP_temperature;BMP_pressure;BME280_temperature;BME280_humidity;BME280_pressure;Samples;Min_cycle;Max_cycle;Signal;HPM_P1;HPM_P2
2023/01/04 00:01:29;;;;;;;9.90;4.45;;;6.80;95.70;;;;;;5009357;28;20133;-66
2023/01/04 00:03:55;;;;;;;8.73;3.40;;;6.80;95.60;;;;;;5012637;28;20083;-65
2023/01/04 00:06:20;;;;;;;6.82;3.53;;;6.80;95.90;;;;;;5006247;28;20108;-66
2023/01/04 00:08:47;;;;;;;5.95;3.92;;;6.80;95.40;;;;;;5014939;28;20033;-66
2023/01/04 00:11:17;;;;;;;7.30;4.45;;;6.80;95.50;;;;;;5017204;28;20112;-65
2023/01/04 00:13:44;;;;;;;4.13;3.15;;;6.80;95.60;;;;;;5011624;28;20033;-66
2023/01/04 00:16:13;;;;;;;7.32;3.47;;;6.70;95.60;;;;;;5015331;28;20144;-65
2023/01/04 00:18:39;;;;;;;4.93;3.85;;;6.70;95.60;;;;;;5014593;28;20112;-65
2023/01/04 00:21:09;;;;;;;6.50;3.42;;;6.70;95.70;;;;;;5011339;28;20029;-66
2023/01/04 00:23:36;;;;;;;6.53;3.38;;;6.70;95.80;;;;;;5008129;28;20026;-65
2023/01/04 00:26:06;;;;;;;5.00;3.58;;;6.70;95.70;;;;;;5010692;28;20033;-65
2023/01/04 00:28:32;;;;;;;5.75;3.67;;;6.70;95.70;;;;;;5009599;28;20132;-65
2023/01/04 00:31:02;;;;;;;5.78;3.45;;;6.70;95.50;;;;;;5013645;28;20116;-65
2023/01/04 00:33:27;;;;;;;7.18;3.60;;;6.70;95.40;;;;;;5000095;28;20090;-66
2023/01/04 00:35:53;;;;;;;5.32;3.88;;;6.70;95.70;;;;;;5012635;28;20026;-66
2023/01/04 00:38:19;;;;;;;6.80;3.47;;;6.70;95.60;;;;;;5013005;28;20099;-65
2023/01/04 00:40:45;;;;;;;6.90;4.03;;;6.60;95.70;;;;;;5013402;28;20378;-66
2023/01/04 00:43:10;;;;;;;7.15;3.78;;;6.60;95.80;;;;;;5007366;28;20548;-65
2023/01/04 00:45:36;;;;;;;5.05;3.50;;;6.50;95.90;;;;;;5012375;28;20136;-66
2023/01/04 00:48:02;;;;;;;7.22;3.47;;;6.50;96.00;;;;;;5007859;28;20034;-66
2023/01/04 00:50:28;;;;;;;4.45;3.25;;;6.50;96.10;;;;;;5010961;28;20048;-65
2023/01/04 00:52:54;;;;;;;7.55;3.90;;;6.50;96.10;;;;;;5016656;28;20513;-66
2023/01/04 00:55:19;;;;;;;7.45;3.42;;;6.60;95.90;;;;;;5013492;28;20528;-66
2023/01/04 00:57:45;;;;;;;8.32;3.80;;;6.60;95.70;;;;;;5014107;28;20035;-65
2023/01/04 01:00:12;;;;;;;5.97;3.83;;;6.70;95.60;;;;;;5013973;28;20029;-65
2023/01/04 01:02:37;;;;;;;6.30;3.72;;;6.70;95.30;;;;;;5015745;28;20033;-65
2023/01/04 01:05:03;;;;;;;5.97;3.45;;;6.70;95.40;;;;;;5015105;28;20088;-66
2023/01/04 01:07:29;;;;;;;5.95;3.83;;;6.60;95.60;;;;;;5006687;28;20128;-66
2023/01/04 01:09:55;;;;;;;4.57;3.28;;;6.70;95.60;;;;;;5011483;28;20133;-65
2023/01/04 01:12:21;;;;;;;8.15;3.90;;;6.70;95.50;;;;;;5006011;28;20037;-65
2023/01/04 01:14:46;;;;;;;4.75;3.35;;;6.70;95.50;;;;;;5013113;28;20037;-65
2023/01/04 01:17:12;;;;;;;5.05;3.47;;;6.60;95.40;;;;;;5016497;28;20068;-66
2023/01/04 01:19:38;;;;;;;6.22;3.58;;;6.60;95.60;;;;;;5009516;28;20025;-66
2023/01/04 01:22:04;;;;;;;5.95;3.28;;;6.60;95.50;;;;;;5012640;28;20083;-65
2023/01/04 01:24:29;;;;;;;6.80;3.22;;;6.60;95.50;;;;;;5009585;28;20029;-65
2023/01/04 01:26:55;;;;;;;6.00;3.50;;;6.60;95.30;;;;;;5012129;28;20037;-65
2023/01/04 01:29:21;;;;;;;7.95;4.00;;;6.60;95.40;;;;;;5011085;28;20158;-65
2023/01/04 01:31:47;;;;;;;6.10;3.47;;;6.50;95.30;;;;;;5007336;28;20035;-65
2023/01/04 01:34:13;;;;;;;5.20;3.95;;;6.60;95.30;;;;;;5012047;28;20070;-66
2023/01/04 01:36:39;;;;;;;5.30;3.25;;;6.60;95.60;;;;;;5022347;28;20036;-65
2023/01/04 01:39:05;;;;;;;6.45;3.65;;;6.60;95.40;;;;;;5015978;28;20030;-65
2023/01/04 01:41:33;;;;;;;5.18;3.00;;;6.60;95.40;;;;;;5012801;28;20544;-65
2023/01/04 01:44:20;;;;;;;7.50;4.10;;;6.50;95.10;;;;;;5011197;28;20033;-65
2023/01/04 01:46:49;;;;;;;8.27;3.45;;;6.60;95.20;;;;;;5017702;28;20285;-65
2023/01/04 01:49:24;;;;;;;4.90;3.53;;;6.50;95.30;;;;;;5011406;28;20065;-65
2023/01/04 01:51:51;;;;;;;6.93;3.42;;;6.50;95.20;;;;;;5016963;28;20030;-65
2023/01/04 01:54:40;;;;;;;7.35;3.28;;;6.50;95.50;;;;;;5009761;28;20647;-65
2023/01/04 01:57:09;;;;;;;5.78;4.13;;;6.50;95.10;;;;;;5018378;28;20041;-65
2023/01/04 01:59:39;;;;;;;6.65;3.70;;;6.40;95.30;;;;;;5016315;28;20525;-66
2023/01/04 02:02:05;;;;;;;6.22;3.47;;;6.40;95.60;;;;;;5015995;28;20442;-65
2023/01/04 02:04:31;;;;;;;4.78;3.10;;;6.40;95.40;;;;;;5017494;28;20038;-65
2023/01/04 02:06:58;;;;;;;5.38;3.20;;;6.40;95.30;;;;;;5011461;28;20823;-65
2023/01/04 02:09:24;;;;;;;4.95;3.05;;;6.40;95.10;;;;;;5013679;28;20083;-65
2023/01/04 02:11:50;;;;;;;4.13;3.13;;;6.40;95.20;;;;;;5014452;28;20033;-65
2023/01/04 02:14:27;;;;;;;7.13;3.70;;;6.40;95.30;;;;;;5013347;28;20037;-65
2023/01/04 02:17:18;;;;;;;3.90;3.25;;;6.40;95.40;;;;;;5014096;28;20129;-65
2023/01/04 02:20:12;;;;;;;6.75;3.40;;;6.40;95.30;;;;;;5019382;28;20603;-65
2023/01/04 02:23:09;;;;;;;5.45;3.15;;;6.30;95.30;;;;;;5016040;28;20990;-65
2023/01/04 02:25:53;;;;;;;3.78;3.17;;;6.20;95.50;;;;;;5012235;28;20108;-66
2023/01/04 02:28:34;;;;;;;3.53;2.80;;;6.20;95.50;;;;;;5014967;28;20045;-65
2023/01/04 02:31:34;;;;;;;6.97;3.10;;;6.20;95.50;;;;;;5011126;28;20376;-65
2023/01/04 02:34:18;;;;;;;4.55;3.08;;;6.20;95.30;;;;;;5012797;28;20040;-65
2023/01/04 02:36:59;;;;;;;4.20;3.03;;;6.30;95.10;;;;;;5015825;28;20037;-65
2023/01/04 02:40:03;;;;;;;5.47;3.15;;;6.20;95.40;;;;;;5021745;28;20505;-66
2023/01/04 02:45:40;;;;;;;5.60;2.92;;;6.10;95.50;;;;;;5014990;28;20132;-66
2023/01/04 02:50:58;;;;;;;7.35;3.67;;;6.10;95.50;;;;;;5009123;28;20041;-65
2023/01/04 02:53:34;;;;;;;5.13;3.47;;;5.90;96.10;;;;;;5017200;28;20068;-65
2023/01/04 02:56:37;;;;;;;8.85;5.05;;;5.80;96.20;;;;;;5006659;28;20520;-66
2023/01/04 02:59:34;;;;;;;9.88;3.72;;;5.80;96.20;;;;;;5020563;28;20041;-66
2023/01/04 03:09:01;;;;;;;5.82;3.63;;;6.00;95.80;;;;;;5009687;28;20056;-65
2023/01/04 03:14:42;;;;;;;6.30;3.80;;;5.90;96.00;;;;;;5008760;28;20063;-65
2023/01/04 03:17:13;;;;;;;6.75;3.55;;;5.90;96.20;;;;;;5016134;28;20037;-65
2023/01/04 03:19:50;;;;;;;4.75;3.13;;;5.90;96.20;;;;;;5010906;28;20125;-65
2023/01/04 03:36:44;;;;;;;10.38;3.10;;;5.90;96.40;;;;;;5013595;28;20044;-65
2023/01/04 03:48:58;;;;;;;6.45;3.00;;;5.90;96.30;;;;;;5019250;28;20036;-65
2023/01/04 03:51:32;;;;;;;7.82;3.47;;;5.90;96.10;;;;;;5012310;28;20095;-65
2023/01/04 03:54:26;;;;;;;7.22;3.38;;;6.00;96.20;;;;;;5013059;28;20041;-66
2023/01/04 03:56:53;;;;;;;5.38;3.15;;;5.90;96.00;;;;;;5007486;28;20402;-65
2023/01/04 03:59:21;;;;;;;8.05;3.20;;;5.90;96.00;;;;;;5012070;28;20040;-65
2023/01/04 04:01:47;;;;;;;8.75;3.78;;;5.90;96.20;;;;;;5006564;28;20051;-65
2023/01/04 04:09:42;;;;;;;6.20;3.22;;;5.90;96.20;;;;;;5011277;28;20029;-65
2023/01/04 04:12:08;;;;;;;6.10;3.45;;;6.00;96.20;;;;;;5014619;28;20430;-66
2023/01/04 04:14:34;;;;;;;5.93;3.17;;;6.00;96.20;;;;;;5010649;28;20056;-65
2023/01/04 04:16:59;;;;;;;5.28;3.40;;;6.00;96.20;;;;;;5010167;28;20033;-65
2023/01/04 04:19:25;;;;;;;5.47;3.38;;;6.00;96.20;;;;;;5011829;28;20176;-65
2023/01/04 04:21:51;;;;;;;6.60;3.40;;;6.00;96.10;;;;;;5013376;28;20025;-65
2023/01/04 04:24:20;;;;;;;4.93;3.65;;;5.90;96.40;;;;;;4994972;28;20558;-65
2023/01/04 04:26:46;;;;;;;7.45;3.15;;;5.90;96.60;;;;;;5010087;28;20981;-65
2023/01/04 04:29:11;;;;;;;6.80;3.55;;;5.90;96.50;;;;;;5014371;28;20656;-65
2023/01/04 04:31:37;;;;;;;9.88;3.17;;;5.90;96.40;;;;;;5016292;28;20120;-65
2023/01/04 04:34:03;;;;;;;4.75;3.10;;;6.00;96.50;;;;;;5011311;28;20148;-65
2023/01/04 04:36:29;;;;;;;4.47;3.20;;;6.00;96.30;;;;;;5013916;28;20029;-65
2023/01/04 04:38:55;;;;;;;5.60;3.53;;;6.10;96.30;;;;;;5006939;28;20095;-65
2023/01/04 04:41:40;;;;;;;6.60;3.10;;;5.90;96.50;;;;;;5010135;28;20030;-65
2023/01/04 04:44:17;;;;;;;5.13;3.38;;;5.90;96.50;;;;;;5008542;28;20029;-65
2023/01/04 04:46:44;;;;;;;4.78;2.90;;;5.80;96.70;;;;;;4999553;28;20033;-65
2023/01/04 04:49:12;;;;;;;4.57;2.80;;;5.80;96.80;;;;;;5017300;28;20029;-65
2023/01/04 04:51:38;;;;;;;4.18;3.10;;;6.00;96.80;;;;;;5014976;28;20116;-65
2023/01/04 04:54:06;;;;;;;7.10;3.40;;;6.00;96.60;;;;;;5013356;28;20057;-65
2023/01/04 04:56:32;;;;;;;8.40;3.28;;;6.10;96.50;;;;;;5011684;28;20367;-65
2023/01/04 04:58:57;;;;;;;5.60;3.30;;;5.90;96.80;;;;;;5009207;28;20100;-65
2023/01/04 05:01:23;;;;;;;6.68;3.50;;;5.90;97.10;;;;;;5014793;28;20026;-65
2023/01/04 05:03:49;;;;;;;4.90;3.22;;;5.90;96.90;;;;;;5008535;28;20445;-65
2023/01/04 05:06:15;;;;;;;5.72;3.53;;;5.90;97.00;;;;;;5013834;28;20044;-65
2023/01/04 05:08:41;;;;;;;7.93;3.22;;;5.80;97.10;;;;;;5005799;28;20042;-65
2023/01/04 05:11:11;;;;;;;4.40;3.00;;;5.90;97.20;;;;;;5012717;28;20040;-65
2023/01/04 05:13:37;;;;;;;4.25;2.97;;;5.90;97.00;;;;;;5016900;28;20406;-66
2023/01/04 05:16:05;;;;;;;4.57;3.15;;;6.00;96.80;;;;;;5014652;28;20037;-65
2023/01/04 05:18:31;;;;;;;6.65;2.85;;;6.10;96.60;;;;;;5015399;28;20132;-64
2023/01/04 05:20:57;;;;;;;5.38;2.83;;;6.10;96.70;;;;;;5011063;28;20136;-64
2023/01/04 05:23:23;;;;;;;6.65;2.85;;;6.20;96.50;;;;;;5014506;28;20045;-65
2023/01/04 05:25:57;;;;;;;6.38;2.75;;;6.20;96.50;;;;;;5014458;28;20025;-65
2023/01/04 05:28:23;;;;;;;6.28;2.83;;;6.20;96.50;;;;;;5009633;28;20652;-66
2023/01/04 05:30:50;;;;;;;4.35;2.80;;;6.10;96.60;;;;;;5015908;28;20029;-65
2023/01/04 05:33:24;;;;;;;3.50;2.88;;;6.10;96.70;;;;;;5019230;28;20022;-65
2023/01/04 05:35:51;;;;;;;8.73;3.00;;;6.10;96.70;;;;;;5015997;28;20034;-65
2023/01/04 05:38:17;;;;;;;6.05;3.25;;;6.20;96.60;;;;;;5016500;28;20037;-65
2023/01/04 05:40:43;;;;;;;5.43;3.10;;;6.20;96.60;;;;;;5011395;28;20040;-65
2023/01/04 05:43:09;;;;;;;6.45;3.00;;;6.20;96.60;;;;;;5014423;28;20077;-65
2023/01/04 05:45:35;;;;;;;7.03;3.20;;;6.20;96.60;;;;;;5010949;28;20026;-65
2023/01/04 05:48:01;;;;;;;5.90;3.05;;;6.20;96.60;;;;;;5013817;28;20045;-65
2023/01/04 05:50:28;;;;;;;5.78;2.72;;;6.20;96.60;;;;;;5010003;28;20160;-65
2023/01/04 05:52:53;;;;;;;6.22;2.80;;;6.20;96.40;;;;;;5015541;28;20742;-65
2023/01/04 05:55:19;;;;;;;3.72;2.63;;;6.30;96.30;;;;;;5019187;28;20029;-65
2023/01/04 05:57:46;;;;;;;7.15;2.70;;;6.30;96.30;;;;;;5015967;28;20048;-65
2023/01/04 06:00:13;;;;;;;6.20;2.75;;;6.30;96.30;;;;;;5013521;28;20017;-65
2023/01/04 06:02:40;;;;;;;4.80;2.72;;;6.30;96.30;;;;;;5014726;28;20103;-65
2023/01/04 06:05:06;;;;;;;3.85;2.33;;;6.40;96.30;;;;;;5010454;28;20072;-65
2023/01/04 06:07:32;;;;;;;4.18;2.35;;;6.50;96.20;;;;;;5015324;28;20040;-65
2023/01/04 06:09:58;;;;;;;2.78;1.83;;;6.50;96.20;;;;;;5006724;28;20040;-65
2023/01/04 06:12:24;;;;;;;3.75;2.40;;;6.60;96.10;;;;;;5016300;28;20038;-65
2023/01/04 06:14:50;;;;;;;3.55;1.92;;;6.60;96.00;;;;;;5020778;28;20041;-65
2023/01/04 06:17:16;;;;;;;4.05;1.98;;;6.70;96.30;;;;;;5016615;28;20044;-65
2023/01/04 06:19:42;;;;;;;4.68;1.95;;;6.70;95.90;;;;;;4996258;28;20088;-65
2023/01/04 06:22:08;;;;;;;3.78;2.15;;;6.70;96.00;;;;;;5012376;28;20112;-65
2023/01/04 06:24:34;;;;;;;1.65;1.45;;;6.80;95.80;;;;;;5015571;28;20385;-65
2023/01/04 06:27:00;;;;;;;5.82;2.00;;;6.70;95.90;;;;;;5024175;28;20065;-65
2023/01/04 06:29:26;;;;;;;4.03;1.85;;;6.70;96.00;;;;;;5012274;28;20045;-65
2023/01/04 06:31:52;;;;;;;3.45;1.67;;;6.70;96.10;;;;;;5011430;28;20064;-65
2023/01/04 06:34:18;;;;;;;3.90;1.90;;;6.70;96.10;;;;;;4991975;28;20021;-64
2023/01/04 06:36:43;;;;;;;4.90;2.13;;;6.80;96.00;;;;;;5015117;28;20739;-65
2023/01/04 06:39:09;;;;;;;2.25;1.80;;;6.70;96.20;;;;;;5000802;28;20461;-65
2023/01/04 06:41:35;;;;;;;5.50;1.73;;;6.70;96.10;;;;;;5018909;28;20105;-65
2023/01/04 06:44:01;;;;;;;2.22;1.73;;;6.80;95.90;;;;;;5009745;28;20037;-65
2023/01/04 06:46:27;;;;;;;4.53;1.85;;;7.00;95.90;;;;;;5013969;28;20038;-65
2023/01/04 06:48:53;;;;;;;3.65;1.33;;;7.00;95.60;;;;;;5013890;28;20026;-65
2023/01/04 06:51:22;;;;;;;6.03;1.50;;;7.10;95.40;;;;;;5017123;28;20664;-65
2023/01/04 06:53:48;;;;;;;2.35;1.33;;;7.00;95.70;;;;;;5012121;28;20040;-65
2023/01/04 06:56:14;;;;;;;3.72;1.10;;;7.00;96.10;;;;;;5014343;28;20029;-65
2023/01/04 06:58:40;;;;;;;2.65;1.35;;;7.10;96.50;;;;;;5017429;28;20457;-65
2023/01/04 07:01:06;;;;;;;4.10;1.38;;;7.20;96.40;;;;;;4994992;28;20120;-65
2023/01/04 07:03:32;;;;;;;4.50;1.40;;;7.20;96.70;;;;;;5018612;28;20664;-65
2023/01/04 07:05:58;;;;;;;4.32;1.52;;;7.20;96.80;;;;;;5015117;28;20079;-65
2023/01/04 07:08:24;;;;;;;2.70;1.10;;;7.20;97.20;;;;;;5014089;28;20124;-65
2023/01/04 07:10:50;;;;;;;1.92;1.30;;;7.20;97.40;;;;;;5010365;28;20029;-65
2023/01/04 07:13:16;;;;;;;4.45;1.58;;;7.10;97.60;;;;;;5011918;28;20072;-65
2023/01/04 07:15:42;;;;;;;2.38;1.02;;;7.10;97.70;;;;;;5009612;28;20061;-65
2023/01/04 07:18:09;;;;;;;5.05;1.35;;;7.10;97.90;;;;;;5008962;28;20060;-65
2023/01/04 07:20:36;;;;;;;2.35;1.17;;;7.20;98.20;;;;;;5017046;28;20538;-65
2023/01/04 07:23:02;;;;;;;2.28;0.82;;;7.10;98.40;;;;;;5017268;28;20083;-65
2023/01/04 07:25:28;;;;;;;4.13;1.10;;;7.10;99.00;;;;;;5014155;28;20140;-65
2023/01/04 07:27:54;;;;;;;1.40;1.10;;;7.10;98.80;;;;;;5015203;28;20815;-65
2023/01/04 07:30:21;;;;;;;1.65;1.25;;;7.10;99.30;;;;;;5011409;28;20033;-65
2023/01/04 07:32:48;;;;;;;5.18;1.30;;;7.00;99.70;;;;;;5012084;28;20033;-65
2023/01/04 07:35:14;;;;;;;6.00;1.10;;;7.00;99.90;;;;;;5015617;28;20037;-65
2023/01/04 07:37:42;;;;;;;4.35;1.17;;;7.00;99.90;;;;;;5015330;28;20030;-66
2023/01/04 07:40:09;;;;;;;1.58;1.00;;;6.90;99.90;;;;;;5013679;28;20619;-66
2023/01/04 07:42:35;;;;;;;3.22;0.93;;;7.00;99.90;;;;;;5013918;28;20063;-66
2023/01/04 07:45:01;;;;;;;6.57;1.17;;;6.90;99.90;;;;;;5013796;28;20037;-66
2023/01/04 07:47:27;;;;;;;3.10;1.05;;;7.00;99.90;;;;;;5021335;28;20046;-66
2023/01/04 07:49:53;;;;;;;3.83;1.00;;;6.90;99.90;;;;;;5015058;28;20537;-67
2023/01/04 07:52:19;;;;;;;2.20;1.25;;;6.90;99.90;;;;;;5011634;28;20155;-66
2023/01/04 07:54:45;;;;;;;3.72;1.33;;;6.90;99.90;;;;;;5009370;28;20108;-65
2023/01/04 07:57:11;;;;;;;6.07;1.00;;;7.00;99.90;;;;;;5007798;28;20814;-66
2023/01/04 07:59:36;;;;;;;3.88;1.50;;;7.00;99.90;;;;;;5014507;28;20511;-67
2023/01/04 08:02:02;;;;;;;2.80;1.40;;;7.00;99.90;;;;;;4999931;28;20026;-66
2023/01/04 08:04:28;;;;;;;2.83;1.27;;;6.90;99.90;;;;;;5013638;28;20095;-67
2023/01/04 08:06:54;;;;;;;8.80;3.38;;;6.90;99.90;;;;;;5012298;28;20065;-66
2023/01/04 08:09:19;;;;;;;1.40;1.00;;;6.90;99.90;;;;;;5013966;28;20040;-66
2023/01/04 08:11:45;;;;;;;1.80;1.38;;;7.00;99.90;;;;;;5014262;28;20153;-66
2023/01/04 08:14:11;;;;;;;4.05;1.20;;;7.00;99.90;;;;;;4995038;28;20033;-67
2023/01/04 08:16:40;;;;;;;4.22;1.20;;;6.90;99.90;;;;;;5012761;28;20037;-68
2023/01/04 08:19:11;;;;;;;5.20;1.55;;;7.00;99.90;;;;;;5013210;28;20064;-67
2023/01/04 08:21:37;;;;;;;5.65;1.70;;;6.90;99.90;;;;;;5010609;28;20040;-67
2023/01/04 08:24:04;;;;;;;2.05;1.50;;;6.90;99.90;;;;;;5017305;28;20021;-67
2023/01/04 08:26:30;;;;;;;5.78;1.52;;;7.00;99.90;;;;;;5015502;28;20120;-67
2023/01/04 08:28:56;;;;;;;5.47;1.55;;;7.00;99.90;;;;;;5015093;28;20034;-67
2023/01/04 08:31:25;;;;;;;4.00;1.63;;;7.00;99.90;;;;;;4978099;28;20054;-66
2023/01/04 08:33:51;;;;;;;4.00;1.80;;;7.00;99.90;;;;;;5013016;28;20042;-67
2023/01/04 08:36:20;;;;;;;4.22;2.10;;;7.10;99.90;;;;;;5012438;28;20127;-66
2023/01/04 08:38:47;;;;;;;3.28;1.95;;;7.10;99.90;;;;;;5012380;28;20431;-67
2023/01/04 08:41:14;;;;;;;7.18;1.80;;;7.20;99.90;;;;;;5011677;28;20497;-70
2023/01/04 08:43:40;;;;;;;4.05;2.25;;;7.10;99.90;;;;;;5022097;28;20033;-69
2023/01/04 08:46:06;;;;;;;4.72;1.88;;;7.00;99.90;;;;;;5016267;28;20397;-66
2023/01/04 08:48:33;;;;;;;7.43;2.20;;;7.00;99.90;;;;;;5015684;28;20102;-66
2023/01/04 08:51:04;;;;;;;7.25;2.30;;;7.10;99.90;;;;;;5012440;28;20030;-67
2023/01/04 08:53:30;;;;;;;3.80;1.67;;;7.10;99.90;;;;;;5009023;28;20056;-67
2023/01/04 08:55:58;;;;;;;7.55;3.00;;;7.10;99.90;;;;;;5009293;28;20034;-66
2023/01/04 08:58:24;;;;;;;6.53;2.45;;;7.10;99.90;;;;;;5011160;28;20034;-68
2023/01/04 09:00:50;;;;;;;5.18;1.80;;;7.10;99.90;;;;;;5009597;28;20517;-67
2023/01/04 09:03:15;;;;;;;4.75;2.35;;;7.10;99.90;;;;;;4996374;28;20029;-67
2023/01/04 09:05:41;;;;;;;6.05;2.17;;;7.20;99.90;;;;;;5006673;28;20041;-68
2023/01/04 09:08:07;;;;;;;4.07;2.10;;;7.20;99.90;;;;;;5016820;28;20029;-67
2023/01/04 09:10:35;;;;;;;4.40;2.30;;;7.20;99.90;;;;;;5016126;28;20559;-67
2023/01/04 09:13:01;;;;;;;3.70;2.10;;;7.10;99.90;;;;;;5011634;28;20072;-67
2023/01/04 09:15:27;;;;;;;10.82;4.15;;;7.20;99.90;;;;;;5014326;28;20037;-67
2023/01/04 09:17:52;;;;;;;5.25;3.05;;;7.20;99.90;;;;;;5011206;28;20116;-66
2023/01/04 09:20:18;;;;;;;2.45;2.00;;;7.20;99.90;;;;;;5012071;28;20037;-68
2023/01/04 09:22:44;;;;;;;7.22;2.60;;;7.30;99.90;;;;;;5010776;28;20045;-67
2023/01/04 09:25:10;;;;;;;5.13;2.42;;;7.30;99.90;;;;;;5010063;28;20026;-66
2023/01/04 09:27:38;;;;;;;5.40;2.47;;;7.20;99.90;;;;;;5015029;28;20495;-66
2023/01/04 09:30:05;;;;;;;5.53;2.55;;;7.30;99.90;;;;;;4997509;28;20772;-67
2023/01/04 09:32:31;;;;;;;5.70;2.42;;;7.30;99.90;;;;;;5013349;28;20037;-67
2023/01/04 09:34:57;;;;;;;5.55;2.42;;;7.40;99.90;;;;;;5010797;28;20037;-66
2023/01/04 09:37:23;;;;;;;6.45;2.53;;;7.40;99.90;;;;;;5009019;28;20049;-66
2023/01/04 09:39:49;;;;;;;3.75;2.00;;;7.40;99.90;;;;;;5012291;28;20079;-66
2023/01/04 09:42:26;;;;;;;4.75;2.10;;;7.40;99.90;;;;;;5010233;28;20025;-67
2023/01/04 09:45:00;;;;;;;4.28;2.28;;;7.40;99.90;;;;;;5006067;28;20391;-66
2023/01/04 09:47:48;;;;;;;4.18;2.30;;;7.50;99.90;;;;;;5004679;28;20332;-66
2023/01/04 09:50:26;;;;;;;5.85;2.67;;;7.50;99.90;;;;;;5014578;28;20048;-67
2023/01/04 09:53:03;;;;;;;4.35;2.60;;;7.40;99.90;;;;;;5009509;28;20132;-66
2023/01/04 09:55:39;;;;;;;5.35;2.22;;;7.40;99.90;;;;;;5016407;28;20037;-66
2023/01/04 09:58:26;;;;;;;5.10;2.50;;;7.50;99.90;;;;;;5008587;28;20045;-66
2023/01/04 10:01:05;;;;;;;3.25;2.13;;;7.50;99.90;;;;;;5009604;28;20278;-67
2023/01/04 10:03:34;;;;;;;2.25;1.67;;;7.60;99.90;;;;;;5015119;28;20036;-67
2023/01/04 10:06:01;;;;;;;4.70;2.20;;;7.60;99.90;;;;;;5010479;28;20109;-67
2023/01/04 10:08:27;;;;;;;4.47;2.40;;;7.60;99.90;;;;;;5014245;28;20092;-67
2023/01/04 10:11:14;;;;;;;7.72;2.42;;;7.60;99.90;;;;;;5013089;28;20056;-67
2023/01/04 10:13:46;;;;;;;4.22;2.70;;;7.60;99.90;;;;;;5015041;28;20034;-67
2023/01/04 10:16:28;;;;;;;5.20;2.55;;;7.70;99.90;;;;;;5015217;28;20034;-67
2023/01/04 10:19:04;;;;;;;3.00;2.15;;;7.60;99.90;;;;;;5015893;28;20429;-67
2023/01/04 10:21:54;;;;;;;9.82;2.63;;;7.70;99.90;;;;;;5016638;28;20059;-67
2023/01/04 10:24:35;;;;;;;6.93;2.10;;;7.60;99.90;;;;;;5012092;28;20053;-66
2023/01/04 10:27:37;;;;;;;7.20;2.50;;;7.80;99.90;;;;;;5013251;28;20520;-66
2023/01/04 10:30:28;;;;;;;4.90;2.30;;;7.80;99.90;;;;;;5007484;28;20040;-67
2023/01/04 10:33:12;;;;;;;3.88;2.55;;;7.70;99.90;;;;;;5017521;28;20117;-67
2023/01/04 10:35:42;;;;;;;5.50;2.45;;;7.70;99.90;;;;;;5020966;28;20044;-67
2023/01/04 10:38:24;;;;;;;4.85;2.25;;;7.80;99.90;;;;;;5016551;28;20044;-67
2023/01/04 10:40:51;;;;;;;3.33;1.90;;;7.80;99.90;;;;;;5013311;28;20022;-66
2023/01/04 10:43:37;;;;;;;3.38;2.00;;;7.90;99.90;;;;;;5018567;28;20057;-66
2023/01/04 10:46:08;;;;;;;5.45;2.30;;;7.90;99.90;;;;;;4995974;28;20038;-67
2023/01/04 10:48:45;;;;;;;2.72;2.05;;;7.90;99.90;;;;;;5013865;28;20038;-67
2023/01/04 10:51:14;;;;;;;5.72;2.05;;;8.00;99.90;;;;;;5007563;28;20483;-68
2023/01/04 10:53:55;;;;;;;5.45;2.20;;;8.00;99.90;;;;;;5013219;28;20029;-72
2023/01/04 10:56:37;;;;;;;3.15;1.90;;;8.10;99.90;;;;;;5016297;28;20029;-67
2023/01/04 10:59:12;;;;;;;4.25;2.67;;;8.20;99.90;;;;;;5015420;28;20026;-67
2023/01/04 11:02:16;;;;;;;2.37;1.70;;;8.30;99.90;;;;;;5013012;28;20029;-67
2023/01/04 11:05:33;;;;;;;7.68;2.28;;;8.30;99.90;;;;;;4999032;28;20398;-67
2023/01/04 11:08:25;;;;;;;3.40;1.60;;;8.20;99.90;;;;;;4983544;28;20049;-66
2023/01/04 11:11:11;;;;;;;3.95;1.77;;;8.30;99.90;;;;;;5012375;28;20712;-66
2023/01/04 11:13:37;;;;;;;2.00;1.80;;;8.30;99.90;;;;;;5004331;28;20036;-67
2023/01/04 11:16:05;;;;;;;3.55;1.50;;;8.40;99.90;;;;;;5015731;28;20049;-66
2023/01/04 11:18:34;;;;;;;3.63;1.88;;;8.30;99.90;;;;;;5021402;28;20190;-66
2023/01/04 11:21:05;;;;;;;2.95;1.92;;;8.20;99.90;;;;;;5014097;28;20030;-67
2023/01/04 11:23:31;;;;;;;4.15;1.88;;;8.20;99.90;;;;;;5015531;28;20469;-66
2023/01/04 11:25:59;;;;;;;3.80;2.08;;;8.30;99.90;;;;;;5014825;28;20026;-66
2023/01/04 11:28:32;;;;;;;4.18;2.22;;;8.30;99.90;;;;;;4996434;28;20084;-67
2023/01/04 11:31:07;;;;;;;3.28;1.80;;;8.30;99.90;;;;;;5017086;28;20034;-66
2023/01/04 11:33:52;;;;;;;2.90;2.00;;;8.30;99.90;;;;;;5015109;28;20520;-67
2023/01/04 11:36:29;;;;;;;3.25;1.83;;;8.30;99.90;;;;;;5014347;28;20552;-66
2023/01/04 11:38:56;;;;;;;7.47;2.08;;;8.40;99.90;;;;;;5013015;28;20021;-66
2023/01/04 11:41:22;;;;;;;4.68;2.60;;;8.40;99.90;;;;;;5015430;28;20034;-67
2023/01/04 11:44:05;;;;;;;1.98;1.63;;;8.50;99.90;;;;;;5014256;28;20061;-67
2023/01/04 11:46:32;;;;;;;3.55;1.63;;;8.50;99.90;;;;;;4998295;28;20116;-67
2023/01/04 11:48:59;;;;;;;2.50;1.50;;;8.50;99.90;;;;;;5006097;28;20040;-67
2023/01/04 11:51:28;;;;;;;2.55;1.80;;;8.50;99.90;;;;;;5011092;28;20474;-67
2023/01/04 11:54:12;;;;;;;2.95;1.60;;;8.60;99.90;;;;;;5011280;28;20132;-67
2023/01/04 11:56:38;;;;;;;4.88;1.55;;;8.60;99.90;;;;;;5011625;28;20509;-67
2023/01/04 11:59:07;;;;;;;4.25;1.70;;;8.60;99.90;;;;;;5014998;28;20038;-67
2023/01/04 12:01:36;;;;;;;4.80;2.20;;;8.60;99.90;;;;;;5010476;28;20034;-67
2023/01/04 12:04:08;;;;;;;2.58;2.03;;;8.60;99.90;;;;;;4995995;28;20072;-67
2023/01/04 12:06:47;;;;;;;2.80;2.00;;;8.50;99.90;;;;;;4993219;28;20179;-67
2023/01/04 12:09:15;;;;;;;3.00;1.70;;;8.50;99.90;;;;;;5008907;28;20184;-67
2023/01/04 12:11:54;;;;;;;3.83;1.67;;;8.60;99.90;;;;;;5010196;28;20037;-67
2023/01/04 12:14:26;;;;;;;2.78;1.55;;;8.60;99.90;;;;;;5013669;28;20398;-67
2023/01/04 12:16:57;;;;;;;2.15;1.65;;;8.60;99.90;;;;;;5012955;28;20565;-67
2023/01/04 12:19:24;;;;;;;6.32;1.73;;;8.60;99.90;;;;;;5016743;28;20037;-67
2023/01/04 12:21:55;;;;;;;2.45;1.80;;;8.60;99.90;;;;;;5014254;28;20029;-67
2023/01/04 12:24:26;;;;;;;4.75;2.15;;;8.50;99.90;;;;;;5018050;28;20062;-66
2023/01/04 12:26:53;;;;;;;2.90;1.95;;;8.60;99.90;;;;;;5015858;28;20034;-66
2023/01/04 12:29:22;;;;;;;2.00;1.80;;;8.50;99.90;;;;;;5012623;28;20040;-67
2023/01/04 12:32:08;;;;;;;2.15;1.92;;;8.50;99.90;;;;;;4990609;28;20030;-66
2023/01/04 12:34:38;;;;;;;3.47;1.85;;;8.50;99.90;;;;;;4978496;28;20135;-66
2023/01/04 12:37:05;;;;;;;7.07;2.35;;;8.50;99.90;;;;;;4997105;28;20065;-66
2023/01/04 12:39:42;;;;;;;3.55;2.30;;;8.50;99.90;;;;;;5011664;28;20040;-66
2023/01/04 12:42:14;;;;;;;3.17;2.20;;;8.50;99.90;;;;;;5012145;28;20018;-67
2023/01/04 12:44:46;;;;;;;2.30;2.10;;;8.50;99.90;;;;;;5009427;28;20033;-66
2023/01/04 12:50:09;;;;;;;3.33;2.30;;;8.50;99.90;;;;;;5008914;28;20041;-66
2023/01/04 12:52:52;;;;;;;3.70;2.33;;;8.50;99.90;;;;;;5009742;28;20033;-66
2023/01/04 12:55:18;;;;;;;3.50;2.40;;;8.50;99.90;;;;;;5009155;28;20034;-67
2023/01/04 12:57:45;;;;;;;2.67;2.00;;;8.60;99.90;;;;;;5010066;28;20064;-65
2023/01/04 13:00:12;;;;;;;2.40;1.83;;;8.50;99.90;;;;;;5011353;28;20043;-66
2023/01/04 13:02:46;;;;;;;3.33;2.10;;;8.60;99.90;;;;;;5009931;28;20389;-66
2023/01/04 13:05:18;;;;;;;3.55;2.15;;;8.60;99.90;;;;;;5014381;28;20673;-66
2023/01/04 13:07:45;;;;;;;4.07;2.13;;;8.60;99.90;;;;;;5012420;28;20055;-67
2023/01/04 13:10:19;;;;;;;7.68;1.90;;;8.60;99.90;;;;;;5010912;28;20080;-66
2023/01/04 13:12:51;;;;;;;3.10;1.92;;;8.60;99.90;;;;;;5012901;28;20037;-66
2023/01/04 13:15:58;;;;;;;2.15;1.73;;;8.70;99.90;;;;;;5008987;28;20466;-67
2023/01/04 13:18:40;;;;;;;3.15;1.98;;;8.70;99.90;;;;;;5008652;28;20494;-67
2023/01/04 13:21:30;;;;;;;2.85;2.10;;;8.80;99.90;;;;;;5009417;28;20065;-67
2023/01/04 13:24:11;;;;;;;3.70;1.92;;;8.80;99.90;;;;;;5011954;28;20786;-67
2023/01/04 13:26:41;;;;;;;3.90;1.85;;;8.80;99.90;;;;;;5015917;28;20743;-67
2023/01/04 13:29:26;;;;;;;3.40;1.90;;;8.80;99.90;;;;;;5012297;28;20029;-66
2023/01/04 13:31:57;;;;;;;1.98;1.70;;;8.70;99.90;;;;;;5008704;28;20045;-67
2023/01/04 13:34:39;;;;;;;4.88;2.08;;;8.80;99.90;;;;;;5006872;28;20084;-66
2023/01/04 13:37:12;;;;;;;4.07;2.22;;;8.80;99.90;;;;;;5008111;28;20069;-65
2023/01/04 13:39:49;;;;;;;3.88;2.15;;;8.80;99.90;;;;;;5004213;28;20030;-66
2023/01/04 13:42:26;;;;;;;3.78;2.40;;;8.90;99.90;;;;;;5012921;28;20022;-66
2023/01/04 13:44:58;;;;;;;3.47;2.05;;;8.90;99.90;;;;;;5008697;28;20138;-66
2023/01/04 13:47:24;;;;;;;2.83;2.00;;;8.80;99.90;;;;;;5013117;28;20083;-66
2023/01/04 13:49:50;;;;;;;4.05;3.00;;;8.80;99.90;;;;;;5019596;28;20033;-66
2023/01/04 13:52:26;;;;;;;2.97;2.13;;;8.80;99.90;;;;;;5015252;28;20064;-65
2023/01/04 13:55:09;;;;;;;8.55;2.80;;;8.80;99.90;;;;;;5015394;28;20037;-66
2023/01/04 13:57:35;;;;;;;8.48;4.63;;;8.70;99.90;;;;;;5008133;28;20032;-66
2023/01/04 14:00:04;;;;;;;2.70;2.15;;;8.70;99.90;;;;;;5017117;28;20025;-66
2023/01/04 14:02:36;;;;;;;4.15;3.22;;;8.80;99.90;;;;;;5010760;28;20034;-66
2023/01/04 14:05:02;;;;;;;2.55;1.98;;;8.90;99.90;;;;;;5013756;28;20047;-66